Webster City, Iowa
Current Conditions -  °F | °C
As of 9:15 AM on Friday 31 Oct 2014 (Local Time) from KEBS Reporting Station
Clear Clear  
Wind Chill: 17°   Ceiling: Unl
Heat Index: 28°   Visibility: 10mi
Dew Point: 19°   Wind: 16mph
Humidity: 69%   Direction: 340°NNW
Pressure: 30.49"   Gusts: NA
Location:  42.47°N, 93.82°W
Report Text: KEBS 311415Z AUTO 34014KT 10SM CLR M02/M07 A3049 RMK AO2
Loading
Personal Weather Stations






























Interactive Weather Map
Tropical Storm Tracking
New forecast layout! Learn more

10-Day Weather Forecast

Advertisements
Track Severe Weather on mobile